ADDS METAR Data INFO
IDs: Format: Raw Decoded Include TAF

Data at: 1158 UTC 21 Jun 2018

KRSW 211153Z 00000KT 10SM FEW021 27/26 A2997 RMK AO2 SLP147 60000 70022 T02670261 10267 20244 53016
KRSW 211053Z 00000KT 10SM CLR 26/25 A2995 RMK AO2 SLP140 T02560250
KRSW 210953Z 22003KT 10SM CLR 25/25 A2994 RMK AO2 RAB04E22 SLP135 P0000 T02500250
KRSW 210853Z AUTO 00000KT 10SM CLR 26/25 A2993 RMK AO2 SLP131 T02560250 56005
KRSW 210753Z AUTO 00000KT 10SM CLR 25/25 A2993 RMK AO2 LTG DSNT SW SLP132 T02500250
KRSW 210653Z AUTO 00000KT 10SM FEW060 26/26 A2994 RMK AO2 SLP136 T02610256
KRSW 210553Z AUTO 00000KT 10SM OVC055 26/26 A2994 RMK AO2 SLP137 60021 T02610256 10278 20244 58006
KRSW 210453Z AUTO 00000KT 10SM BKN060 26/26 A2996 RMK AO2 SLP142 T02610256 403560233
KRSW 210353Z AUTO 00000KT 10SM FEW055 26/26 A2997 RMK AO2 SLP147 T02560256
KRSW 210253Z COR 00000KT 10SM SCT050 26/25 A2996 RMK AO2 RAE04 SLP143 P0000 60021 T02560250 53012
KRSW 210153Z 09005KT 10SM -RA CLR 25/24 A2995 RMK AO2 TSE0059 SLP139 P0003 T02500239
KRSW 210105Z 33007KT 10SM -RA FEW055 SCT080 BKN100 25/23 A2993 RMK AO2 LTG DSNT E TSE0059 P0001 T02500233
KRSW 210053Z 34007KT 10SM -TSRA FEW055 SCT075 BKN110 24/23 A2994 RMK AO2 LTG DSNT NE AND E TSE17B19 SLP134 P0018 T02440233
KRSW 210020Z 13008KT 7SM -TSRA FEW043 BKN060 OVC070 27/26 A2994 RMK AO2 LTG DSNT NE AND E TSE17B19 P0001 T02720256
KRSW 210018Z 13006KT 7SM -RA SCT046 BKN060 OVC070 27/26 A2994 RMK AO2 LTG DSNT NE AND E TSE17 P0001 T02720256
KRSW 202353Z 30007KT 10SM -TSRA FEW028 SCT046 BKN070 28/25 A2993 RMK AO2 PK WND 29027/2313 LTG DSNT N TSB08 SLP131 P0000 60001 T02780250 10356 20267 53013
KRSW 202321Z 30013G27KT 7SM -TSRA FEW003 FEW018 SCT060 27/23 A2992 RMK AO2 PK WND 29027/2313 TSB08 P0000 T02720233
KRSW 202314Z 29016G27KT 10SM -TSRA FEW065 FEW090 27/24 A2991 RMK AO2 PK WND 29027/2313 TSB08 P0000 T02720239
KRSW 202253Z 32004KT 8SM -RA FEW038 BKN090 OVC110 29/26 A2990 RMK AO2 RAB14 SLP124 P0001 T02890256
KRSW 202153Z 26008KT 10SM BKN042 BKN060 32/24 A2989 RMK AO2 SLP119 T03170239
KRSW 202056Z 26009KT 10SM SCT055 33/24 A2989 RMK AO2 T03330244
KRSW 202053Z 26009KT 10SM OVC055 33/24 A2989 RMK AO2 SLP119 T03330239 56021
KRSW 201953Z 11004KT 10SM FEW060 34/21 A2991 RMK AO2 SLP124 T03390206
KRSW 201853Z VRB03KT 10SM BKN055 33/21 A2993 RMK AO2 SLP132 T03330211
KRSW 201753Z 19004KT 10SM CLR 33/21 A2995 RMK AO2 SLP140 T03280211 10333 20244 58012
KRSW 201653Z 33004KT 10SM FEW048 FEW060 SCT075 32/21 A2997 RMK AO2 SLP146 T03220211
KRSW 201553Z VRB03KT 10SM FEW037 31/23 A2998 RMK AO2 SLP150 T03110233
KRSW 201453Z 00000KT 10SM CLR 30/23 A2999 RMK AO2 SLP152 T03000233 50003
KRSW 201353Z 19006KT 10SM CLR 28/25 A2999 RMK AO2 SLP153 T02830250
KRSW 201253Z 15005KT 10SM CLR 27/24 A2999 RMK AO2 SLP152 T02670244
KRSW 201153Z 09004KT 10SM CLR 24/24 A2998 RMK AO2 SLP149 T02440244 10250 20233 53013
KRSW 201053Z 08003KT 10SM CLR 24/24 A2996 RMK AO2 SLP143 T02390239
KRSW 200953Z 09003KT 10SM CLR 24/23 A2996 RMK AO2 SLP141 T02390233
KRSW 200853Z AUTO 00000KT 10SM CLR 24/23 A2994 RMK AO2 SLP136 T02390233 56009
KRSW 200753Z AUTO 00000KT 10SM CLR 24/23 A2994 RMK AO2 SLP137 T02440233
KRSW 200653Z AUTO 07003KT 10SM CLR 24/23 A2995 RMK AO2 SLP140 T02440233
KRSW 200553Z AUTO 10004KT 10SM CLR 25/23 A2997 RMK AO2 SLP145 T02500233 10306 20250 58002
KRSW 200453Z AUTO 06004KT 10SM CLR 26/23 A2998 RMK AO2 SLP148 T02560233 403440239
KRSW 200353Z AUTO 11004KT 10SM CLR 26/23 A2998 RMK AO2 SLP150 T02610228
KRSW 200253Z 13003KT 10SM CLR 27/20 A2997 RMK AO2 SLP148 T02670200 53004
KRSW 200153Z 08003KT 10SM CLR 27/21 A2997 RMK AO2 LTG DSNT W SLP146 T02720206
KRSW 200053Z 10004KT 10SM CLR 29/18 A2996 RMK AO2 LTG DSNT W SLP142 T02890178